createdAt,value
2017-09-11T03:31:04.435Z,13.90
2017-09-11T03:33:32.037Z,13.90
2017-09-11T03:36:00.533Z,13.90
2017-09-11T03:38:28.925Z,13.90
2017-09-11T03:40:56.536Z,13.90
2017-09-11T03:43:24.642Z,14.00
2017-09-11T03:45:52.287Z,14.00
2017-09-11T03:48:19.948Z,14.10
2017-09-11T03:50:48.387Z,14.10
2017-09-11T03:53:15.993Z,14.10
2017-09-11T03:55:44.054Z,14.10
2017-09-11T03:58:12.425Z,14.30
2017-09-11T04:00:40.023Z,14.30
2017-09-11T04:03:08.408Z,14.20
2017-09-11T04:05:36.786Z,14.30
2017-09-11T04:08:04.902Z,14.20
2017-09-11T04:10:32.550Z,14.30
2017-09-11T04:13:00.169Z,14.20
2017-09-11T04:15:29.100Z,14.20
2017-09-11T04:17:56.697Z,14.20
2017-09-11T04:20:24.496Z,14.10
2017-09-11T04:22:52.125Z,14.10
2017-09-11T04:25:19.725Z,14.00
2017-09-11T04:27:47.701Z,14.00
2017-09-11T04:30:15.304Z,14.00
2017-09-11T04:32:42.913Z,14.20
2017-09-11T04:35:11.761Z,14.20
2017-09-11T04:37:39.379Z,14.20
2017-09-11T04:40:06.980Z,14.10
2017-09-11T04:42:34.612Z,14.00
2017-09-11T04:45:02.222Z,13.80
2017-09-11T04:47:30.990Z,13.80
2017-09-11T04:49:58.592Z,13.70
2017-09-11T04:52:26.180Z,13.70
2017-09-11T04:54:53.806Z,13.70
2017-09-11T04:57:21.409Z,13.80
2017-09-11T04:59:49.405Z,13.80
2017-09-11T05:02:17.026Z,14.00
2017-09-11T05:04:44.620Z,14.10
2017-09-11T05:07:12.250Z,14.10
2017-09-11T05:09:39.843Z,14.10
2017-09-11T05:12:07.921Z,14.20
2017-09-11T05:14:36.303Z,14.20
2017-09-11T05:17:03.948Z,14.20
2017-09-11T05:19:31.932Z,14.20
2017-09-11T05:21:59.518Z,14.10
2017-09-11T05:24:27.905Z,14.20
2017-09-11T05:26:55.928Z,14.10
2017-09-11T05:29:24.292Z,14.20
2017-09-11T05:31:51.881Z,14.20
2017-09-11T05:34:19.843Z,14.40
2017-09-11T05:36:47.453Z,14.50
2017-09-11T05:39:15.077Z,14.60
2017-09-11T05:41:42.819Z,14.60
2017-09-11T05:44:10.414Z,14.60
2017-09-11T05:46:39.176Z,15.10
2017-09-11T05:49:06.780Z,15.10
2017-09-11T05:51:34.386Z,15.30
2017-09-11T05:54:02.060Z,15.40
2017-09-11T05:56:29.805Z,15.50
2017-09-11T05:58:57.790Z,15.50
2017-09-11T06:01:25.393Z,15.10
2017-09-11T06:03:53.004Z,15.00
2017-09-11T06:06:21.799Z,15.00
2017-09-11T06:08:49.399Z,14.90
2017-09-11T06:11:17.809Z,14.80
2017-09-11T06:13:45.814Z,14.80
2017-09-11T06:16:13.395Z,15.00
2017-09-11T06:18:41.752Z,15.50
2017-09-11T06:21:09.885Z,15.50
2017-09-11T06:23:37.499Z,15.40
2017-09-11T06:26:05.872Z,15.00
2017-09-11T06:28:33.864Z,15.00
2017-09-11T06:31:02.216Z,15.00
2017-09-11T06:33:29.821Z,15.00
2017-09-11T06:35:57.837Z,15.10
2017-09-11T06:38:25.446Z,15.20
2017-09-11T06:40:53.042Z,15.40
2017-09-11T06:43:20.666Z,15.30
2017-09-11T06:45:48.267Z,15.30
2017-09-11T06:48:16.272Z,15.40
2017-09-11T06:50:44.634Z,15.30
2017-09-11T06:53:13.045Z,15.40
2017-09-11T06:55:41.775Z,15.50
2017-09-11T06:58:09.373Z,15.50
2017-09-11T07:00:36.969Z,15.40
2017-09-11T07:03:04.610Z,15.40
2017-09-11T07:05:33.017Z,15.40
2017-09-11T07:08:01.028Z,15.40
2017-09-11T07:10:28.635Z,15.70
2017-09-11T07:13:08.637Z,15.90
2017-09-11T07:15:36.256Z,16.10
2017-09-11T07:18:03.892Z,16.10
2017-09-11T07:20:31.508Z,16.10
2017-09-11T07:22:59.092Z,15.90
2017-09-11T07:25:27.183Z,15.90
2017-09-11T07:27:55.551Z,15.90
2017-09-11T07:30:23.912Z,16.10
2017-09-11T07:32:51.906Z,16.10
2017-09-11T07:35:20.309Z,16.40
2017-09-11T07:37:47.921Z,16.40
2017-09-11T07:40:15.988Z,16.50
2017-09-11T07:42:43.605Z,16.60
2017-09-11T07:45:11.196Z,16.50
2017-09-11T07:47:38.935Z,16.60
2017-09-11T07:50:06.536Z,16.60
2017-09-11T07:52:34.137Z,16.80
2017-09-11T07:55:02.103Z,16.90
2017-09-11T07:57:29.709Z,16.90
2017-09-11T07:59:57.311Z,16.90
2017-09-11T08:02:25.353Z,16.90
2017-09-11T08:04:53.054Z,16.80
2017-09-11T08:07:20.682Z,16.90
2017-09-11T08:09:48.304Z,16.80
2017-09-11T08:12:15.914Z,17.20
2017-09-11T08:14:43.866Z,17.20
2017-09-11T08:17:11.465Z,17.30
2017-09-11T08:19:39.895Z,17.20
2017-09-11T08:22:07.881Z,17.20
2017-09-11T08:24:35.480Z,17.10
2017-09-11T08:27:03.134Z,17.10
2017-09-11T08:29:31.549Z,17.00
2017-09-11T08:31:59.165Z,17.00
2017-09-11T08:34:27.904Z,17.20
2017-09-11T08:36:55.505Z,17.10
2017-09-11T08:39:23.886Z,17.10
2017-09-11T08:41:52.260Z,17.20
2017-09-11T08:44:20.630Z,17.30
2017-09-11T08:46:48.636Z,17.20
2017-09-11T08:49:16.250Z,17.40
2017-09-11T08:51:43.857Z,17.50
2017-09-11T08:54:11.505Z,17.50
2017-09-11T08:56:39.100Z,17.80
2017-09-11T08:59:07.218Z,17.80
2017-09-11T09:01:35.614Z,17.80
2017-09-11T09:04:03.978Z,17.70
2017-09-11T09:06:32.359Z,17.70
2017-09-11T09:09:00.772Z,17.70
2017-09-11T09:11:28.754Z,17.70
2017-09-11T09:13:56.357Z,17.70
2017-09-11T09:16:23.970Z,17.80
2017-09-11T09:18:51.580Z,17.90
2017-09-11T09:21:19.230Z,18.00
2017-09-11T09:23:47.198Z,18.20
2017-09-11T09:26:14.807Z,18.30
2017-09-11T09:28:42.408Z,18.50
2017-09-11T09:31:10.036Z,18.50
2017-09-11T09:33:37.683Z,18.70
2017-09-11T09:36:06.434Z,19.20
2017-09-11T09:38:34.044Z,19.20
2017-09-11T09:41:01.643Z,19.70
2017-09-11T09:43:29.354Z,20.00
2017-09-11T09:45:57.724Z,20.30
2017-09-11T09:48:26.490Z,20.30
2017-09-11T09:50:54.522Z,20.30
2017-09-11T09:53:22.129Z,20.10
2017-09-11T09:55:49.757Z,20.10
2017-09-11T09:58:17.369Z,20.30
2017-09-11T10:00:46.123Z,20.60
2017-09-11T10:03:13.734Z,20.60
2017-09-11T10:05:41.338Z,20.70
2017-09-11T10:08:08.960Z,21.10
2017-09-11T10:10:36.561Z,21.90
2017-09-11T10:13:04.641Z,22.80
2017-09-11T10:15:32.259Z,23.90
2017-09-11T10:17:59.869Z,25.60
2017-09-11T10:20:27.483Z,27.70
2017-09-11T10:22:55.067Z,30.10
2017-09-11T10:25:23.074Z,31.80
2017-09-11T10:27:51.456Z,29.20
2017-09-11T10:30:19.838Z,29.60
2017-09-11T10:32:48.228Z,30.80
2017-09-11T10:35:16.124Z,30.70
2017-09-11T10:37:44.140Z,30.70
2017-09-11T10:40:12.510Z,28.80
2017-09-11T10:42:40.137Z,28.80
2017-09-11T10:45:08.124Z,27.50
2017-09-11T10:47:35.718Z,25.90
2017-09-11T10:50:04.105Z,23.40
2017-09-11T10:52:32.504Z,22.80
2017-09-11T10:55:00.118Z,22.70
2017-09-11T10:57:28.097Z,22.50
2017-09-11T10:59:56.468Z,21.30
2017-09-11T11:02:24.070Z,21.20
2017-09-11T11:04:53.229Z,21.60
2017-09-11T11:07:20.862Z,22.20
2017-09-11T11:09:48.503Z,23.10
2017-09-11T11:12:16.473Z,23.60
2017-09-11T11:14:44.136Z,22.90
2017-09-11T11:17:11.739Z,22.80
2017-09-11T11:19:39.362Z,22.90
2017-09-11T11:22:06.975Z,23.00
2017-09-11T11:24:35.649Z,24.00
2017-09-11T11:27:03.256Z,24.00
2017-09-11T11:29:30.859Z,23.30
2017-09-11T11:31:58.482Z,22.80
2017-09-11T11:34:26.081Z,22.40
2017-09-11T11:36:54.066Z,21.90
2017-09-11T11:39:22.439Z,21.70
2017-09-11T11:41:50.137Z,21.70
2017-09-11T11:44:18.013Z,23.00
2017-09-11T11:46:45.657Z,27.10
2017-09-11T11:49:13.257Z,32.20
2017-09-11T11:51:41.249Z,32.40
2017-09-11T11:54:09.004Z,33.20
2017-09-11T11:56:36.664Z,32.60
2017-09-11T11:59:05.352Z,29.20
2017-09-11T12:01:32.958Z,27.70
2017-09-11T12:04:00.597Z,28.00
2017-09-11T12:06:28.980Z,32.00
2017-09-11T12:08:57.357Z,30.70
2017-09-11T12:11:25.720Z,29.90
2017-09-11T12:13:53.339Z,29.80
2017-09-11T12:16:20.940Z,27.00
2017-09-11T12:18:48.869Z,25.60
2017-09-11T12:21:16.477Z,24.10
2017-09-11T12:23:44.086Z,23.40
2017-09-11T12:26:12.105Z,22.80
2017-09-11T12:28:39.750Z,21.80
2017-09-11T12:31:07.359Z,21.50
2017-09-11T12:33:35.405Z,21.60
2017-09-11T12:36:03.769Z,21.60
2017-09-11T12:38:31.392Z,21.60
2017-09-11T12:40:59.056Z,21.60
2017-09-11T12:43:26.670Z,21.80
2017-09-11T12:45:55.359Z,21.80
2017-09-11T12:48:23.748Z,21.70
2017-09-11T12:50:52.114Z,21.70
2017-09-11T12:53:20.160Z,21.70
2017-09-11T12:55:47.766Z,21.90
2017-09-11T12:58:15.373Z,22.10
2017-09-11T13:00:42.992Z,21.90
2017-09-11T13:03:10.666Z,22.00
2017-09-11T13:05:38.634Z,22.30
2017-09-11T13:08:06.310Z,23.00
2017-09-11T13:10:34.745Z,23.30
2017-09-11T13:13:03.147Z,23.00
2017-09-11T13:15:30.798Z,22.90
2017-09-11T13:17:58.842Z,22.90
2017-09-11T13:20:27.254Z,23.40
2017-09-11T13:22:55.053Z,23.40
2017-09-11T13:25:23.066Z,23.70
2017-09-11T13:27:51.633Z,23.90
2017-09-11T13:30:20.026Z,23.70
2017-09-11T13:32:47.645Z,23.70
2017-09-11T13:35:15.249Z,23.30
2017-09-11T13:37:43.201Z,23.20
2017-09-11T13:40:10.827Z,23.40
2017-09-11T13:42:38.473Z,23.40
2017-09-11T13:45:06.113Z,23.20
2017-09-11T13:47:33.737Z,23.00
2017-09-11T13:50:01.722Z,22.90
2017-09-11T13:52:29.401Z,22.60
2017-09-11T13:54:57.050Z,22.40
2017-09-11T13:57:24.670Z,22.40
2017-09-11T13:59:52.300Z,22.60
2017-09-11T14:02:20.287Z,22.50
2017-09-11T14:04:47.885Z,22.60
2017-09-11T14:07:15.489Z,22.30
2017-09-11T14:09:43.112Z,21.90
2017-09-11T14:12:10.712Z,22.50
2017-09-11T14:14:38.647Z,22.80
2017-09-11T14:17:06.250Z,22.60
2017-09-11T14:19:33.867Z,22.50
2017-09-11T14:22:01.506Z,22.40
2017-09-11T14:24:29.124Z,22.40
2017-09-11T14:26:57.064Z,22.60
2017-09-11T14:29:25.469Z,22.40
2017-09-11T14:31:53.080Z,22.30
2017-09-11T14:34:20.714Z,22.00
2017-09-11T14:36:48.321Z,22.10
2017-09-11T14:39:16.230Z,22.20
2017-09-11T14:41:43.826Z,22.20
2017-09-11T14:44:12.200Z,22.10
2017-09-11T14:46:39.810Z,22.10
2017-09-11T14:49:08.197Z,22.20
2017-09-11T14:51:37.534Z,22.20
2017-09-11T14:54:05.213Z,22.20
2017-09-11T14:56:32.817Z,22.10
2017-09-11T14:59:01.193Z,21.60
2017-09-11T15:01:28.795Z,21.60
2017-09-11T15:03:56.670Z,21.50
2017-09-11T15:06:24.286Z,21.70
2017-09-11T15:08:51.902Z,21.90
2017-09-11T15:11:19.980Z,21.70
2017-09-11T15:13:47.583Z,21.40
2017-09-11T15:16:15.186Z,21.30
2017-09-11T15:18:42.810Z,21.10
2017-09-11T15:21:10.435Z,20.90
2017-09-11T15:23:38.387Z,20.70
2017-09-11T15:26:06.005Z,20.50
2017-09-11T15:28:33.633Z,20.30
2017-09-11T15:31:02.125Z,19.30
2017-09-11T15:33:29.754Z,19.20
2017-09-11T15:35:57.649Z,19.00
2017-09-11T15:38:26.026Z,19.30
2017-09-11T15:40:54.412Z,18.90
2017-09-11T15:43:22.822Z,18.40
2017-09-11T15:45:50.422Z,18.40
2017-09-11T15:48:18.401Z,18.20
2017-09-11T15:50:46.010Z,18.10
2017-09-11T15:53:13.637Z,18.00
2017-09-11T15:55:42.027Z,18.00
2017-09-11T15:58:09.636Z,18.00
2017-09-11T16:00:37.568Z,18.20
2017-09-11T16:03:05.182Z,18.20
2017-09-11T16:05:32.785Z,18.20
2017-09-11T16:08:00.402Z,18.00
2017-09-11T16:10:28.018Z,17.90
2017-09-11T16:12:56.951Z,17.70
2017-09-11T16:15:24.581Z,17.40
2017-09-11T16:17:52.209Z,17.30
2017-09-11T16:20:20.202Z,17.40
2017-09-11T16:22:47.896Z,17.60
2017-09-11T16:25:15.512Z,17.90
2017-09-11T16:27:43.517Z,18.10
2017-09-11T16:30:11.134Z,17.80
2017-09-11T16:32:38.760Z,17.40
2017-09-11T16:35:06.456Z,17.30
2017-09-11T16:37:34.836Z,17.40
2017-09-11T16:40:03.752Z,17.70
2017-09-11T16:42:31.409Z,17.80
2017-09-11T16:44:59.035Z,17.90
2017-09-11T16:47:27.429Z,18.10
2017-09-11T16:49:55.036Z,18.10
2017-09-11T16:52:23.021Z,18.10
2017-09-11T16:54:50.619Z,17.70
2017-09-11T16:57:19.226Z,17.60
2017-09-11T16:59:47.343Z,17.50
2017-09-11T17:02:14.968Z,17.70
2017-09-11T17:04:42.585Z,17.70
2017-09-11T17:07:11.361Z,18.00
2017-09-11T17:09:39.050Z,18.00
2017-09-11T17:12:06.694Z,17.80
2017-09-11T17:14:35.104Z,17.70
2017-09-11T17:17:02.714Z,17.70
2017-09-11T17:19:30.690Z,17.70
2017-09-11T17:21:58.310Z,17.60
2017-09-11T17:24:25.938Z,17.60
2017-09-11T17:26:54.619Z,17.70
2017-09-11T17:29:23.003Z,17.50
2017-09-11T17:32:29.129Z,17.50
2017-09-11T17:34:56.733Z,17.40
2017-09-11T17:37:24.339Z,17.50
2017-09-11T17:39:52.440Z,17.50
2017-09-11T17:42:20.051Z,17.30
2017-09-11T17:44:48.334Z,17.20
2017-09-11T17:47:15.954Z,17.10
2017-09-11T17:49:44.346Z,17.20
2017-09-11T17:52:12.003Z,17.20
2017-09-11T17:54:40.410Z,17.00
2017-09-11T17:57:08.349Z,16.90
2017-09-11T17:59:35.982Z,17.00
2017-09-11T18:02:03.597Z,17.10
2017-09-11T18:04:31.233Z,17.30
2017-09-11T18:06:59.637Z,17.30
2017-09-11T18:09:27.347Z,17.30
2017-09-11T18:11:55.317Z,17.40
2017-09-11T18:14:22.934Z,17.50
2017-09-11T18:16:50.557Z,17.60
2017-09-11T18:19:18.955Z,17.70
2017-09-11T18:21:46.601Z,17.70
2017-09-11T18:24:15.471Z,17.90
2017-09-11T18:26:44.622Z,18.00
2017-09-11T18:29:12.266Z,18.00
2017-09-11T18:31:40.241Z,18.00
2017-09-11T18:34:07.880Z,17.90
2017-09-11T18:36:36.307Z,17.70
2017-09-11T18:39:04.265Z,17.70
2017-09-11T18:41:31.913Z,17.70
2017-09-11T18:43:59.721Z,17.60
2017-09-11T18:46:27.428Z,17.60
2017-09-11T18:48:55.056Z,17.70
2017-09-11T18:51:24.014Z,17.60
2017-09-11T18:53:51.633Z,17.40
2017-09-11T18:56:20.855Z,17.40
2017-09-11T18:58:48.521Z,17.40
2017-09-11T19:01:16.357Z,17.30
2017-09-11T19:03:45.070Z,16.90
2017-09-11T19:06:12.706Z,16.90
2017-09-11T19:08:41.115Z,17.00
2017-09-11T19:11:08.779Z,16.90
2017-09-11T19:13:36.394Z,17.10
2017-09-11T19:16:04.471Z,17.10
2017-09-11T19:18:32.902Z,17.10
2017-09-11T19:21:00.534Z,17.10
2017-09-11T19:23:28.315Z,17.00
2017-09-11T19:25:56.571Z,17.00
2017-09-11T19:28:24.649Z,16.90
2017-09-11T19:30:52.275Z,16.90
2017-09-11T19:33:19.953Z,16.80
2017-09-11T19:35:47.642Z,16.70
2017-09-11T19:38:15.285Z,16.70
2017-09-11T19:40:42.912Z,16.90
2017-09-11T19:43:10.588Z,16.90
2017-09-11T19:45:39.005Z,16.80
2017-09-11T19:48:06.650Z,16.80
2017-09-11T19:50:34.272Z,16.80
2017-09-11T19:53:01.902Z,16.50
2017-09-11T19:55:29.907Z,16.20
2017-09-11T19:57:58.058Z,16.50
2017-09-11T20:00:25.671Z,16.60
2017-09-11T20:02:53.606Z,16.70
2017-09-11T20:05:21.226Z,16.60
2017-09-11T20:07:48.842Z,16.60
2017-09-11T20:10:16.785Z,16.50
2017-09-11T20:12:44.388Z,16.50
2017-09-11T20:15:11.995Z,16.50
2017-09-11T20:17:39.611Z,16.50
2017-09-11T20:20:07.985Z,16.60
2017-09-11T20:22:36.756Z,16.50
2017-09-11T20:25:04.376Z,16.50
2017-09-11T20:27:31.999Z,16.70
2017-09-11T20:30:00.417Z,16.70
2017-09-11T20:32:28.035Z,16.70
2017-09-11T20:34:56.803Z,16.50
2017-09-11T20:37:24.405Z,16.50
2017-09-11T20:39:52.052Z,16.50
2017-09-11T20:42:19.675Z,16.40
2017-09-11T20:44:47.256Z,16.40
2017-09-11T20:47:16.002Z,16.20
2017-09-11T20:49:43.607Z,16.20
2017-09-11T20:52:11.994Z,16.10
2017-09-11T20:54:40.385Z,16.00
2017-09-11T20:57:08.003Z,16.00
2017-09-11T20:59:35.990Z,16.00
2017-09-11T21:02:03.588Z,15.90
2017-09-11T21:04:31.201Z,15.80
2017-09-11T21:06:58.821Z,15.80
2017-09-11T21:09:26.425Z,15.40
2017-09-11T21:11:54.817Z,15.40
2017-09-11T21:14:23.194Z,15.40
2017-09-11T21:16:52.411Z,15.50
2017-09-11T21:19:20.007Z,15.40
2017-09-11T21:21:47.613Z,15.70
2017-09-11T21:24:16.014Z,15.70
2017-09-11T21:26:43.618Z,15.70
2017-09-11T21:29:11.597Z,15.40
2017-09-11T21:31:39.203Z,15.30
2017-09-11T21:34:06.801Z,15.20
2017-09-11T21:36:34.794Z,15.30
2017-09-11T21:39:02.410Z,15.50
2017-09-11T21:41:30.004Z,15.80
2017-09-11T21:43:57.632Z,15.90
2017-09-11T21:46:25.237Z,16.00
2017-09-11T21:48:53.206Z,16.20
2017-09-11T21:51:20.822Z,16.10
2017-09-11T21:53:48.422Z,16.10
2017-09-11T21:56:16.074Z,15.90
2017-09-11T21:58:43.699Z,16.00
2017-09-11T22:01:11.712Z,15.80
2017-09-11T22:03:39.323Z,15.80
2017-09-11T22:06:06.921Z,15.60
2017-09-11T22:08:34.903Z,15.80
2017-09-11T22:11:02.513Z,15.80
2017-09-11T22:13:30.869Z,15.70
2017-09-11T22:15:59.558Z,15.70
2017-09-11T22:18:27.933Z,15.50
2017-09-11T22:20:56.306Z,15.60
2017-09-11T22:23:25.006Z,15.60
2017-09-11T22:25:53.378Z,15.60
2017-09-11T22:28:21.753Z,15.20
